Time;durP1;ratioP1;P1;durP2;ratioP2;P2;SDS_P1;SDS_P2;PMS_P1;PMS_P2;Temp;Humidity;BMP_temperature;BMP_pressure;BME280_temperature;BME280_humidity;BME280_pressure;Samples;Min_cycle;Max_cycle;Signal;HPM_P1;HPM_P2
2023/08/25 00:01:06;;;;;;;5.45;4.60;;;18.70;99.90;;;;;;5065003;28;20215;-83
2023/08/25 00:03:33;;;;;;;8.10;5.03;;;18.70;99.90;;;;;;5065843;28;20215;-83
2023/08/25 00:05:59;;;;;;;5.43;4.93;;;18.70;99.90;;;;;;5064372;28;20228;-82
2023/08/25 00:08:29;;;;;;;5.10;4.60;;;18.60;99.90;;;;;;5064708;28;20223;-82
2023/08/25 00:10:56;;;;;;;4.93;4.25;;;18.60;99.90;;;;;;5067580;28;20223;-82
2023/08/25 00:13:24;;;;;;;5.30;4.80;;;18.60;99.90;;;;;;5062302;28;20318;-83
2023/08/25 00:15:50;;;;;;;7.15;4.53;;;18.60;99.90;;;;;;5054864;28;20327;-83
2023/08/25 00:18:17;;;;;;;5.90;5.20;;;18.70;99.90;;;;;;5064301;28;20769;-83
2023/08/25 00:20:44;;;;;;;5.22;4.72;;;18.60;99.90;;;;;;5064554;28;20302;-83
2023/08/25 00:23:11;;;;;;;5.25;4.72;;;18.60;99.90;;;;;;5055280;28;20238;-83
2023/08/25 00:25:38;;;;;;;6.88;4.65;;;18.60;99.90;;;;;;5063000;28;20230;-83
2023/08/25 00:28:05;;;;;;;5.78;5.22;;;18.60;99.90;;;;;;5054829;28;20224;-83
2023/08/25 00:30:33;;;;;;;5.95;5.35;;;18.70;99.90;;;;;;5061718;28;20219;-83
2023/08/25 00:33:00;;;;;;;5.93;4.65;;;18.70;99.90;;;;;;5057053;28;20775;-82
2023/08/25 00:35:27;;;;;;;6.40;4.80;;;18.70;99.90;;;;;;5063282;28;20655;-83
2023/08/25 00:37:54;;;;;;;5.22;4.63;;;18.70;99.90;;;;;;5054251;28;20306;-82
2023/08/25 00:40:20;;;;;;;7.10;4.88;;;18.70;99.90;;;;;;5063664;28;20314;-82
2023/08/25 00:42:47;;;;;;;5.90;5.30;;;18.70;99.90;;;;;;5055670;28;20223;-82
2023/08/25 00:45:14;;;;;;;5.53;4.85;;;18.70;99.90;;;;;;5055756;28;20314;-83
2023/08/25 00:47:42;;;;;;;5.88;5.28;;;18.70;99.90;;;;;;5052096;28;20797;-83
2023/08/25 00:50:11;;;;;;;6.75;5.28;;;18.70;99.90;;;;;;5066933;28;20223;-83
2023/08/25 00:52:39;;;;;;;6.70;5.70;;;18.70;99.90;;;;;;5058325;28;20224;-83
2023/08/25 00:55:07;;;;;;;5.95;5.40;;;18.70;99.90;;;;;;5059273;28;20219;-83
2023/08/25 00:57:35;;;;;;;8.80;6.20;;;18.70;99.90;;;;;;5055136;28;20299;-83
2023/08/25 01:00:04;;;;;;;6.57;5.97;;;18.70;99.90;;;;;;5062584;28;20336;-83
2023/08/25 01:02:31;;;;;;;6.97;6.28;;;18.70;99.90;;;;;;5058306;28;20590;-83
2023/08/25 01:04:59;;;;;;;7.28;6.57;;;18.70;99.90;;;;;;5056850;28;20216;-83
2023/08/25 01:07:27;;;;;;;7.85;6.97;;;18.70;99.90;;;;;;5053675;28;20239;-82
2023/08/25 01:09:55;;;;;;;8.25;6.57;;;18.70;99.90;;;;;;5062066;28;20235;-82
2023/08/25 01:12:35;;;;;;;8.70;6.88;;;18.80;99.90;;;;;;5060897;28;20215;-82
2023/08/25 01:15:08;;;;;;;8.93;6.45;;;18.80;99.90;;;;;;5065960;28;20223;-82
2023/08/25 01:17:41;;;;;;;7.70;6.90;;;18.80;99.90;;;;;;5086025;28;20366;-82
2023/08/25 01:20:13;;;;;;;9.77;6.57;;;18.80;99.90;;;;;;5062892;28;20305;-82
2023/08/25 01:22:51;;;;;;;8.65;6.90;;;18.80;99.90;;;;;;5058810;28;20306;-82
2023/08/25 01:25:25;;;;;;;7.65;6.95;;;18.80;99.90;;;;;;5062112;28;20286;-82
2023/08/25 01:27:52;;;;;;;8.60;7.75;;;18.80;99.90;;;;;;5054361;28;21743;-82
2023/08/25 01:30:19;;;;;;;8.07;7.03;;;18.80;99.90;;;;;;5053265;28;20286;-83
2023/08/25 01:32:47;;;;;;;7.68;6.93;;;18.80;99.90;;;;;;5051021;28;20252;-83
2023/08/25 01:35:15;;;;;;;9.60;7.50;;;18.80;99.90;;;;;;5058413;28;20261;-83
2023/08/25 01:37:48;;;;;;;7.30;6.60;;;18.80;99.90;;;;;;5056673;28;20207;-83
2023/08/25 01:40:21;;;;;;;8.18;7.05;;;18.90;99.90;;;;;;5059313;28;20222;-83
2023/08/25 01:42:52;;;;;;;8.68;7.63;;;18.90;99.90;;;;;;5065623;28;20297;-83
2023/08/25 01:45:20;;;;;;;8.48;7.32;;;18.90;99.90;;;;;;5059918;28;20233;-84
2023/08/25 01:47:49;;;;;;;8.60;7.65;;;18.90;99.90;;;;;;5060566;28;20852;-84
2023/08/25 01:50:16;;;;;;;8.40;7.50;;;18.90;99.90;;;;;;5060087;28;20701;-83
2023/08/25 01:52:43;;;;;;;10.07;7.72;;;19.00;99.90;;;;;;5063539;28;20662;-84
2023/08/25 01:55:10;;;;;;;8.82;7.40;;;18.90;99.90;;;;;;5054539;28;20216;-83
2023/08/25 01:57:37;;;;;;;10.07;7.22;;;19.00;99.90;;;;;;5056780;28;20226;-83
2023/08/25 02:00:09;;;;;;;10.63;7.38;;;18.90;99.90;;;;;;5062862;28;20812;-84
2023/08/25 02:02:41;;;;;;;10.75;7.80;;;19.00;99.90;;;;;;5062288;28;20246;-84
2023/08/25 02:05:08;;;;;;;9.38;7.80;;;19.00;99.90;;;;;;5055632;28;20251;-84
2023/08/25 02:07:35;;;;;;;8.75;7.22;;;19.00;99.90;;;;;;5061061;28;20316;-86
2023/08/25 02:10:02;;;;;;;9.43;8.38;;;19.00;99.90;;;;;;5061346;28;20227;-84
2023/08/25 02:12:29;;;;;;;11.43;8.15;;;18.90;99.90;;;;;;5060111;28;20322;-85
2023/08/25 02:14:56;;;;;;;8.18;7.38;;;18.90;99.90;;;;;;5059070;28;20212;-85
2023/08/25 02:17:24;;;;;;;8.82;8.02;;;18.90;99.90;;;;;;5059823;28;20223;-84
2023/08/25 02:19:52;;;;;;;9.68;8.27;;;18.90;99.90;;;;;;5065452;28;20238;-84
2023/08/25 02:22:18;;;;;;;9.40;8.43;;;18.80;99.90;;;;;;5076531;28;20287;-84
2023/08/25 02:24:45;;;;;;;9.23;7.78;;;18.80;99.90;;;;;;5067292;28;20596;-83
2023/08/25 02:27:12;;;;;;;10.05;8.90;;;18.70;99.90;;;;;;5055952;28;20283;-83
2023/08/25 02:29:38;;;;;;;9.15;8.10;;;18.70;99.90;;;;;;5059935;28;20884;-83
2023/08/25 02:32:06;;;;;;;9.35;8.10;;;18.70;99.90;;;;;;5059398;28;20327;-83
2023/08/25 02:34:34;;;;;;;9.70;8.30;;;18.60;99.90;;;;;;5068905;28;20249;-82
2023/08/25 02:37:01;;;;;;;10.00;9.00;;;18.60;99.90;;;;;;5061583;28;20224;-82
2023/08/25 02:39:28;;;;;;;11.57;8.80;;;18.50;99.90;;;;;;5067286;28;20226;-82
2023/08/25 02:41:55;;;;;;;9.60;8.70;;;18.50;99.90;;;;;;5056913;28;20228;-83
2023/08/25 02:44:22;;;;;;;13.27;9.13;;;18.50;99.90;;;;;;5055247;28;20828;-83
2023/08/25 02:46:50;;;;;;;11.15;9.70;;;18.40;99.90;;;;;;5062880;28;20234;-83
2023/08/25 02:49:17;;;;;;;11.63;9.75;;;18.40;99.90;;;;;;5057667;28;20216;-83
2023/08/25 02:51:45;;;;;;;11.63;9.45;;;18.40;99.90;;;;;;5061253;28;20268;-83
2023/08/25 02:54:13;;;;;;;12.45;9.82;;;18.30;99.90;;;;;;5067953;28;20211;-84
2023/08/25 02:56:42;;;;;;;10.48;9.40;;;18.30;99.90;;;;;;5068922;28;20646;-84
2023/08/25 02:59:09;;;;;;;12.63;10.45;;;18.30;99.90;;;;;;5058282;28;20220;-83
2023/08/25 03:01:36;;;;;;;12.82;11.40;;;18.30;99.90;;;;;;5068582;28;20211;-84
2023/08/25 03:04:03;;;;;;;11.75;10.50;;;18.30;99.90;;;;;;5059474;28;20219;-83
2023/08/25 03:06:30;;;;;;;15.40;12.02;;;18.30;99.90;;;;;;5070037;28;20306;-83
2023/08/25 03:08:58;;;;;;;16.73;12.52;;;18.30;99.90;;;;;;5062470;28;20218;-83
2023/08/25 03:11:25;;;;;;;13.38;11.95;;;18.30;99.90;;;;;;5059852;28;20230;-84
2023/08/25 03:13:52;;;;;;;13.52;11.63;;;18.30;99.90;;;;;;5062192;28;20223;-83
2023/08/25 03:16:18;;;;;;;15.98;12.35;;;18.20;99.90;;;;;;5060223;28;20351;-83
2023/08/25 03:18:45;;;;;;;16.90;13.43;;;18.20;99.90;;;;;;5063022;28;20219;-83
2023/08/25 03:21:12;;;;;;;14.82;13.32;;;18.20;99.90;;;;;;5063959;28;20590;-84
2023/08/25 03:23:39;;;;;;;16.40;13.77;;;18.20;99.90;;;;;;5063600;28;20254;-84
2023/08/25 03:26:07;;;;;;;17.42;14.63;;;18.20;99.90;;;;;;5062369;28;20232;-84
2023/08/25 03:28:34;;;;;;;17.00;13.55;;;18.20;99.90;;;;;;5063762;28;20226;-83
2023/08/25 03:31:00;;;;;;;18.77;14.13;;;18.20;99.90;;;;;;5067599;28;20223;-84
2023/08/25 03:33:28;;;;;;;17.33;14.50;;;18.20;99.90;;;;;;5057002;28;20247;-84
2023/08/25 03:35:55;;;;;;;14.77;13.20;;;18.20;99.90;;;;;;5062709;28;20769;-85
2023/08/25 03:38:22;;;;;;;15.57;13.30;;;18.20;99.90;;;;;;5084328;28;20294;-83
2023/08/25 03:40:58;;;;;;;19.15;15.32;;;18.20;99.90;;;;;;5060109;28;20226;-82
2023/08/25 03:43:26;;;;;;;17.00;13.50;;;18.20;99.90;;;;;;5059874;28;20280;-84
2023/08/25 03:45:53;;;;;;;15.95;14.25;;;18.20;99.90;;;;;;5076774;28;20685;-83
2023/08/25 03:48:21;;;;;;;15.20;13.57;;;18.20;99.90;;;;;;5064939;28;20248;-83
2023/08/25 03:50:48;;;;;;;16.08;13.50;;;18.20;99.90;;;;;;5062827;28;20223;-83
2023/08/25 03:53:15;;;;;;;17.25;14.35;;;18.20;99.90;;;;;;5061118;28;20311;-84
2023/08/25 03:55:42;;;;;;;20.15;15.00;;;18.20;99.90;;;;;;5067224;28;20713;-82
2023/08/25 03:58:10;;;;;;;15.93;13.90;;;18.20;99.90;;;;;;5065967;28;20803;-82
2023/08/25 04:00:39;;;;;;;16.23;13.45;;;18.20;99.90;;;;;;5060946;28;20256;-82
2023/08/25 04:03:06;;;;;;;18.58;15.52;;;18.20;99.90;;;;;;5068249;28;20269;-83
2023/08/25 04:05:33;;;;;;;17.17;14.98;;;18.20;99.90;;;;;;5053528;28;20220;-83
2023/08/25 04:08:00;;;;;;;19.58;15.75;;;18.20;99.90;;;;;;5069590;28;20211;-84
2023/08/25 04:10:28;;;;;;;17.58;15.68;;;18.20;99.90;;;;;;5073236;28;20223;-84
2023/08/25 04:12:54;;;;;;;17.77;15.98;;;18.20;99.90;;;;;;5056699;28;20246;-84
2023/08/25 04:15:22;;;;;;;20.70;15.27;;;18.20;99.90;;;;;;5061798;28;20228;-83
2023/08/25 04:17:50;;;;;;;18.88;14.85;;;18.20;99.90;;;;;;5061761;28;20800;-83
2023/08/25 04:20:17;;;;;;;18.30;15.77;;;18.20;99.90;;;;;;5063104;28;20792;-83
2023/08/25 04:22:44;;;;;;;18.27;14.60;;;18.20;99.90;;;;;;5060712;28;20294;-81
2023/08/25 04:25:11;;;;;;;20.80;16.73;;;18.20;99.90;;;;;;5061726;28;20232;-81
2023/08/25 04:27:40;;;;;;;20.70;16.73;;;18.20;99.90;;;;;;5061850;28;20220;-81
2023/08/25 04:30:08;;;;;;;20.48;15.85;;;18.20;99.90;;;;;;5065742;28;20724;-81
2023/08/25 04:32:35;;;;;;;18.65;15.13;;;18.10;99.90;;;;;;5062943;28;20291;-82
2023/08/25 04:35:04;;;;;;;19.15;16.95;;;18.10;99.90;;;;;;5066128;28;20242;-82
2023/08/25 04:37:31;;;;;;;21.90;17.60;;;18.10;99.90;;;;;;5063352;28;20296;-79
2023/08/25 04:39:58;;;;;;;19.00;16.63;;;18.10;99.90;;;;;;5053774;28;20625;-81
2023/08/25 04:42:26;;;;;;;19.85;15.93;;;18.20;99.90;;;;;;5065231;28;20273;-81
2023/08/25 04:44:53;;;;;;;17.15;14.73;;;18.10;99.90;;;;;;5060187;28;20315;-81
2023/08/25 04:47:19;;;;;;;21.13;17.23;;;18.10;99.90;;;;;;5067996;28;20301;-81
2023/08/25 04:49:46;;;;;;;18.98;16.45;;;18.10;99.90;;;;;;5069043;28;20315;-81
2023/08/25 04:52:14;;;;;;;20.60;16.90;;;18.10;99.90;;;;;;5077670;28;20269;-81
2023/08/25 04:54:42;;;;;;;19.13;16.98;;;18.20;99.90;;;;;;5062088;28;20211;-81
2023/08/25 04:57:08;;;;;;;19.60;17.35;;;18.20;99.90;;;;;;5063546;28;20646;-81
2023/08/25 04:59:35;;;;;;;18.23;16.10;;;18.20;99.90;;;;;;5062598;28;21041;-81
2023/08/25 05:02:02;;;;;;;20.67;17.73;;;18.30;99.90;;;;;;5064277;28;20237;-81
2023/08/25 05:04:29;;;;;;;20.77;17.70;;;18.30;99.90;;;;;;5067988;28;20253;-81
2023/08/25 05:06:56;;;;;;;23.77;19.98;;;18.40;99.90;;;;;;5068027;28;20259;-81
2023/08/25 05:09:25;;;;;;;22.35;18.27;;;18.40;99.90;;;;;;5059135;28;20227;-81
2023/08/25 05:11:52;;;;;;;25.45;19.52;;;18.40;99.90;;;;;;5065778;28;20210;-81
2023/08/25 05:14:18;;;;;;;26.13;22.08;;;18.50;99.90;;;;;;5062749;28;20227;-83
2023/08/25 05:16:45;;;;;;;26.25;20.27;;;18.60;99.90;;;;;;5063891;28;20224;-82
2023/08/25 05:19:23;;;;;;;29.45;23.42;;;18.60;99.90;;;;;;5067618;28;20227;-81
2023/08/25 05:21:50;;;;;;;28.23;22.15;;;18.80;99.90;;;;;;5062146;28;20632;-82
2023/08/25 05:24:18;;;;;;;27.73;23.13;;;18.80;99.90;;;;;;5063369;28;20247;-82
2023/08/25 05:26:51;;;;;;;26.60;22.23;;;18.80;99.90;;;;;;5067108;28;20247;-81
2023/08/25 05:29:18;;;;;;;25.08;21.40;;;18.90;99.90;;;;;;5066382;28;20882;-82
2023/08/25 05:31:45;;;;;;;26.88;22.55;;;18.90;99.90;;;;;;5071399;28;20492;-81
2023/08/25 05:34:31;;;;;;;29.30;22.15;;;19.00;99.90;;;;;;5069901;28;20291;-82
2023/08/25 05:37:03;;;;;;;27.33;23.17;;;19.10;99.90;;;;;;5066762;28;20220;-82
2023/08/25 05:39:30;;;;;;;27.50;24.55;;;19.20;99.90;;;;;;5064555;28;20242;-82
2023/08/25 05:41:58;;;;;;;33.00;26.10;;;19.20;99.90;;;;;;5065773;28;20230;-81
2023/08/25 05:44:27;;;;;;;30.80;26.00;;;19.20;99.90;;;;;;5061352;28;20220;-82
2023/08/25 05:46:54;;;;;;;30.05;24.92;;;19.30;99.90;;;;;;5075002;28;20325;-81
2023/08/25 05:49:21;;;;;;;31.17;25.73;;;19.30;99.90;;;;;;5064665;28;20717;-81
2023/08/25 05:51:48;;;;;;;29.35;25.38;;;19.40;99.90;;;;;;5062777;28;20227;-81
2023/08/25 05:54:15;;;;;;;31.02;25.35;;;19.40;99.90;;;;;;5075082;28;20306;-81
2023/08/25 05:56:42;;;;;;;29.08;25.63;;;19.40;99.90;;;;;;5064144;28;20266;-82
2023/08/25 05:59:10;;;;;;;30.15;26.48;;;19.50;99.90;;;;;;5059201;28;20222;-81
2023/08/25 06:01:37;;;;;;;30.83;26.30;;;19.50;99.90;;;;;;5054447;28;20752;-81
2023/08/25 06:04:04;;;;;;;33.20;26.23;;;19.60;99.90;;;;;;5059845;28;20220;-82
2023/08/25 06:06:31;;;;;;;31.38;25.63;;;19.70;99.90;;;;;;5059253;28;20707;-82
2023/08/25 06:08:58;;;;;;;28.55;25.17;;;19.70;99.90;;;;;;5066011;28;20285;-83
2023/08/25 06:11:24;;;;;;;29.17;25.23;;;19.80;99.90;;;;;;5060574;28;20227;-83
2023/08/25 06:13:51;;;;;;;29.63;24.38;;;19.80;99.90;;;;;;5068296;28;20215;-83
2023/08/25 06:16:19;;;;;;;32.55;25.23;;;19.90;99.90;;;;;;5065954;28;20227;-83
2023/08/25 06:18:46;;;;;;;30.00;25.83;;;20.00;99.90;;;;;;5069352;28;20220;-83
2023/08/25 06:21:12;;;;;;;30.00;24.17;;;20.10;99.90;;;;;;5067533;28;20246;-83
2023/08/25 06:23:39;;;;;;;27.80;23.83;;;20.10;99.90;;;;;;5066444;28;20215;-83
2023/08/25 06:26:06;;;;;;;27.85;22.98;;;20.20;99.90;;;;;;5068959;28;20224;-82
2023/08/25 06:28:34;;;;;;;25.45;22.75;;;20.30;99.90;;;;;;5063176;28;20219;-83
2023/08/25 06:31:00;;;;;;;26.95;22.55;;;20.30;99.90;;;;;;5067229;28;20219;-83
2023/08/25 06:33:29;;;;;;;26.73;23.83;;;20.40;99.90;;;;;;5065955;28;20234;-83
2023/08/25 06:35:56;;;;;;;28.45;23.80;;;20.50;99.90;;;;;;5067110;28;20605;-83
2023/08/25 06:38:23;;;;;;;26.15;22.92;;;20.50;99.90;;;;;;5069236;28;20232;-82
2023/08/25 06:40:50;;;;;;;27.00;24.20;;;20.50;99.90;;;;;;5065114;28;20831;-83
2023/08/25 06:43:17;;;;;;;27.10;23.23;;;20.50;99.90;;;;;;5068912;28;20220;-83
2023/08/25 06:45:44;;;;;;;27.27;23.77;;;20.60;99.90;;;;;;5065415;28;20232;-83
2023/08/25 06:48:10;;;;;;;26.33;23.48;;;20.60;99.90;;;;;;5071834;28;20235;-81
2023/08/25 06:50:38;;;;;;;26.77;23.95;;;20.70;99.90;;;;;;5074292;28;20298;-82
2023/08/25 06:53:07;;;;;;;24.95;22.30;;;20.70;99.90;;;;;;5066172;28;20223;-82
2023/08/25 06:55:34;;;;;;;26.95;23.02;;;20.70;99.90;;;;;;5063817;28;20224;-82
2023/08/25 06:58:02;;;;;;;26.23;23.38;;;20.80;99.90;;;;;;5065296;28;20216;-82
2023/08/25 07:00:29;;;;;;;27.15;23.08;;;20.80;99.90;;;;;;5064592;28;20231;-82
2023/08/25 07:02:55;;;;;;;24.88;22.10;;;20.80;99.90;;;;;;5071417;28;20227;-82
2023/08/25 07:05:23;;;;;;;24.60;21.88;;;20.90;99.90;;;;;;5066932;28;20310;-82
2023/08/25 07:07:51;;;;;;;23.70;21.17;;;21.00;99.90;;;;;;5067274;28;20939;-81
2023/08/25 07:10:19;;;;;;;23.73;21.02;;;21.00;99.90;;;;;;5063283;28;20216;-81
2023/08/25 07:12:45;;;;;;;24.23;21.48;;;21.10;99.90;;;;;;5065087;28;20220;-82
2023/08/25 07:15:12;;;;;;;24.35;21.60;;;21.10;99.90;;;;;;5070185;28;20222;-82
2023/08/25 07:17:39;;;;;;;23.63;20.58;;;21.10;99.90;;;;;;5066865;28;20274;-82
2023/08/25 07:20:08;;;;;;;24.52;21.92;;;21.20;99.90;;;;;;5067024;28;20314;-82
2023/08/25 07:22:35;;;;;;;23.30;20.58;;;21.20;99.90;;;;;;5072785;28;20227;-81
2023/08/25 07:25:03;;;;;;;23.60;20.10;;;21.20;99.90;;;;;;5069944;28;20243;-82
2023/08/25 07:27:30;;;;;;;21.17;18.90;;;21.20;99.90;;;;;;5079476;28;20231;-82
2023/08/25 07:29:57;;;;;;;21.30;19.02;;;21.20;99.90;;;;;;5064564;28;20219;-82
2023/08/25 07:32:24;;;;;;;21.50;19.20;;;21.10;99.90;;;;;;5064221;28;20247;-82
2023/08/25 07:34:50;;;;;;;23.20;19.38;;;21.10;99.90;;;;;;5065668;28;20603;-82
2023/08/25 07:37:17;;;;;;;22.55;18.73;;;21.00;99.90;;;;;;5068502;28;20797;-81
2023/08/25 07:39:49;;;;;;;20.17;17.98;;;21.00;99.90;;;;;;5076637;28;20659;-81
2023/08/25 07:42:17;;;;;;;21.00;18.13;;;21.00;99.90;;;;;;5065840;28;20219;-82
2023/08/25 07:44:44;;;;;;;21.08;18.17;;;20.90;99.90;;;;;;5068947;28;20245;-80
2023/08/25 07:47:11;;;;;;;18.23;16.17;;;20.90;99.90;;;;;;5065719;28;20314;-81
2023/08/25 07:49:37;;;;;;;20.27;17.33;;;20.90;99.90;;;;;;5067737;28;20226;-80
2023/08/25 07:52:04;;;;;;;19.45;17.33;;;20.90;99.90;;;;;;5057352;28;20225;-80
2023/08/25 07:54:31;;;;;;;18.67;16.73;;;20.90;99.90;;;;;;5073469;28;20756;-80
2023/08/25 07:56:58;;;;;;;18.92;15.65;;;20.90;99.90;;;;;;5056330;28;20220;-80
2023/08/25 07:59:26;;;;;;;18.95;16.02;;;20.90;99.90;;;;;;5076418;22;20250;-77
2023/08/25 08:01:53;;;;;;;16.50;14.25;;;21.00;99.90;;;;;;5064156;28;20350;-77
2023/08/25 08:04:20;;;;;;;18.45;16.02;;;21.00;99.90;;;;;;5041085;28;20730;-77
2023/08/25 08:06:47;;;;;;;20.42;16.33;;;21.10;99.90;;;;;;5049278;28;20890;-77
2023/08/25 08:09:14;;;;;;;19.58;15.73;;;21.20;99.90;;;;;;5038365;28;20773;-77
2023/08/25 08:11:41;;;;;;;18.38;15.00;;;21.30;99.90;;;;;;5043776;28;20219;-77
2023/08/25 08:14:07;;;;;;;18.52;15.55;;;21.40;99.90;;;;;;5043873;28;20223;-77
2023/08/25 08:16:36;;;;;;;18.30;14.73;;;21.50;99.90;;;;;;5040044;28;20224;-77
2023/08/25 08:19:03;;;;;;;18.25;16.35;;;21.60;99.90;;;;;;5043283;28;20285;-77
2023/08/25 08:21:29;;;;;;;19.67;15.07;;;21.80;99.90;;;;;;5061205;28;20914;-77
2023/08/25 08:23:56;;;;;;;17.17;14.30;;;22.00;99.90;;;;;;5051093;28;20766;-77
2023/08/25 08:26:23;;;;;;;15.73;13.93;;;22.20;99.90;;;;;;5060789;28;20230;-77
2023/08/25 08:28:50;;;;;;;16.88;15.07;;;22.40;99.90;;;;;;5058929;28;20228;-77
2023/08/25 08:31:18;;;;;;;14.90;13.32;;;22.70;99.90;;;;;;5038612;28;20306;-77
2023/08/25 08:33:47;;;;;;;16.13;13.38;;;23.00;99.90;;;;;;5045082;28;20873;-77
2023/08/25 08:36:16;;;;;;;17.10;14.50;;;23.30;99.90;;;;;;5062161;28;20216;-77
2023/08/25 08:38:42;;;;;;;15.98;14.35;;;23.70;99.90;;;;;;5039888;28;20302;-77
2023/08/25 08:41:10;;;;;;;16.83;13.07;;;24.10;99.90;;;;;;5064623;28;20218;-77
2023/08/25 08:43:42;;;;;;;15.57;13.88;;;24.50;99.90;;;;;;5039806;28;20219;-77
2023/08/25 08:46:10;;;;;;;16.60;14.95;;;24.90;99.90;;;;;;5038147;28;20250;-77
2023/08/25 08:48:37;;;;;;;15.50;13.68;;;25.10;99.90;;;;;;5041619;28;20801;-77
2023/08/25 08:51:07;;;;;;;16.90;15.10;;;25.30;99.90;;;;;;5049791;28;20231;-77
2023/08/25 08:53:33;;;;;;;15.68;13.98;;;25.30;99.90;;;;;;5041884;28;20353;-77
2023/08/25 08:56:01;;;;;;;18.05;15.93;;;25.30;99.90;;;;;;5039742;28;20211;-77
2023/08/25 08:58:28;;;;;;;16.88;14.73;;;25.30;99.90;;;;;;5044347;28;20269;-77
2023/08/25 09:00:56;;;;;;;15.73;13.77;;;25.20;99.90;;;;;;5061785;28;20226;-78
2023/08/25 09:03:28;;;;;;;20.08;15.95;;;25.20;99.90;;;;;;5046919;28;20231;-77
2023/08/25 09:05:59;;;;;;;17.65;14.95;;;25.10;99.90;;;;;;5050221;28;20315;-78
2023/08/25 09:08:28;;;;;;;16.27;14.57;;;25.10;99.90;;;;;;5060807;28;20804;-77
2023/08/25 09:10:55;;;;;;;20.17;17.88;;;25.20;99.90;;;;;;5038130;28;20733;-78
2023/08/25 09:13:21;;;;;;;20.73;18.52;;;25.20;99.90;;;;;;5037705;28;20953;-77
2023/08/25 09:15:53;;;;;;;19.30;17.20;;;25.20;99.90;;;;;;5046535;28;20294;-77
2023/08/25 09:18:20;;;;;;;20.88;18.58;;;25.20;99.90;;;;;;5044044;28;20227;-79
2023/08/25 09:20:46;;;;;;;21.10;17.13;;;25.10;99.90;;;;;;5061530;28;20720;-79
2023/08/25 09:23:13;;;;;;;20.17;16.83;;;25.10;99.90;;;;;;5045799;28;20284;-79
2023/08/25 09:25:42;;;;;;;20.60;16.85;;;24.90;99.90;;;;;;5051175;28;20238;-80
2023/08/25 09:28:09;;;;;;;22.02;17.13;;;24.90;99.90;;;;;;5057413;28;20607;-80
2023/08/25 09:30:36;;;;;;;20.98;16.50;;;24.80;99.90;;;;;;5048059;28;20239;-80
2023/08/25 09:33:04;;;;;;;22.67;17.45;;;24.70;99.90;;;;;;5043531;28;20220;-80
2023/08/25 09:35:32;;;;;;;17.85;15.75;;;24.50;99.90;;;;;;5048831;28;20302;-80
2023/08/25 09:37:58;;;;;;;18.27;16.00;;;24.30;99.90;;;;;;5042766;28;20219;-80
2023/08/25 09:40:26;;;;;;;19.67;15.57;;;24.20;99.90;;;;;;5039048;28;20314;-80
2023/08/25 09:42:59;;;;;;;20.25;15.93;;;24.10;99.90;;;;;;5055190;28;20225;-80
2023/08/25 09:45:28;;;;;;;19.55;15.70;;;24.00;99.90;;;;;;5037585;28;20737;-79
2023/08/25 09:48:05;;;;;;;20.77;16.20;;;23.90;99.90;;;;;;5060366;28;20227;-80
2023/08/25 09:50:37;;;;;;;18.65;16.10;;;23.90;99.90;;;;;;5049882;28;20229;-80
2023/08/25 09:53:05;;;;;;;16.20;14.48;;;23.90;99.90;;;;;;5061371;28;20243;-79
2023/08/25 09:55:34;;;;;;;15.05;12.93;;;23.90;99.90;;;;;;5044951;28;20915;-79
2023/08/25 09:58:03;;;;;;;16.80;13.27;;;23.80;99.90;;;;;;5041540;28;20228;-80
2023/08/25 10:00:30;;;;;;;13.60;12.20;;;23.80;99.90;;;;;;5030202;28;20301;-79
2023/08/25 10:02:58;;;;;;;17.73;12.10;;;23.80;99.90;;;;;;5036357;28;20314;-80
2023/08/25 10:05:25;;;;;;;13.82;12.30;;;23.80;99.90;;;;;;5043283;28;20309;-81
2023/08/25 10:07:52;;;;;;;13.63;11.88;;;23.70;99.90;;;;;;5043809;28;20701;-80
2023/08/25 10:10:21;;;;;;;15.77;11.63;;;23.70;99.90;;;;;;5058580;28;20239;-80
2023/08/25 10:12:48;;;;;;;16.08;13.25;;;23.70;99.90;;;;;;5069297;28;20222;-79
2023/08/25 10:15:18;;;;;;;14.52;12.57;;;23.60;99.90;;;;;;5072029;28;20318;-79
2023/08/25 10:17:46;;;;;;;14.10;12.68;;;23.60;99.90;;;;;;5038830;28;20224;-80
2023/08/25 10:20:14;;;;;;;14.15;12.55;;;23.60;99.90;;;;;;5068657;28;20953;-79
2023/08/25 10:22:45;;;;;;;15.20;12.00;;;23.60;99.90;;;;;;5033747;28;20227;-80
2023/08/25 10:25:14;;;;;;;15.02;13.43;;;23.60;99.90;;;;;;5030607;28;20233;-79
2023/08/25 10:27:41;;;;;;;16.25;13.65;;;23.70;99.90;;;;;;5044379;28;20292;-79
2023/08/25 10:30:09;;;;;;;17.60;14.57;;;23.70;99.90;;;;;;5034152;28;20311;-80
2023/08/25 10:32:56;;;;;;;16.80;14.32;;;23.80;99.90;;;;;;5054727;28;20236;-80
2023/08/25 10:35:39;;;;;;;15.57;14.05;;;23.80;99.90;;;;;;5030715;28;21066;-80
2023/08/25 10:38:22;;;;;;;15.68;14.00;;;23.90;99.90;;;;;;5054998;28;20244;-79
2023/08/25 10:40:50;;;;;;;15.50;13.90;;;23.80;99.90;;;;;;5042953;28;20226;-80
2023/08/25 10:43:24;;;;;;;17.58;13.27;;;23.80;99.90;;;;;;5056144;28;20586;-79
2023/08/25 10:45:51;;;;;;;14.25;12.77;;;23.70;99.90;;;;;;5040600;28;20227;-80
2023/08/25 10:48:20;;;;;;;16.38;13.02;;;23.70;99.90;;;;;;5044761;28;20216;-80
2023/08/25 10:50:47;;;;;;;14.45;12.25;;;23.60;99.90;;;;;;5060164;28;20249;-79
2023/08/25 10:53:38;;;;;;;14.68;12.30;;;23.50;99.90;;;;;;5039361;28;20223;-80
2023/08/25 10:56:15;;;;;;;18.42;15.80;;;23.50;99.90;;;;;;5046712;28;20243;-79
2023/08/25 10:58:42;;;;;;;15.55;12.50;;;23.40;99.90;;;;;;5043346;28;20237;-80
2023/08/25 11:01:09;;;;;;;12.77;11.25;;;23.30;99.90;;;;;;5046289;28;20941;-80
2023/08/25 11:04:04;;;;;;;14.57;11.00;;;23.20;99.90;;;;;;5041833;28;20234;-80
2023/08/25 11:06:41;;;;;;;12.57;10.40;;;23.20;99.90;;;;;;5044501;28;20220;-80
2023/08/25 11:09:10;;;;;;;14.35;11.15;;;23.10;99.90;;;;;;5041571;28;20312;-80
2023/08/25 11:11:38;;;;;;;11.82;9.43;;;23.10;99.90;;;;;;5062353;28;20239;-80
2023/08/25 11:14:05;;;;;;;12.50;10.73;;;23.10;99.90;;;;;;5045930;28;20720;-79
2023/08/25 11:16:32;;;;;;;12.13;10.88;;;23.20;99.90;;;;;;5042721;28;20228;-80
2023/08/25 11:19:00;;;;;;;13.05;10.52;;;23.20;99.90;;;;;;5044858;28;20246;-79
2023/08/25 11:21:27;;;;;;;15.25;11.13;;;23.30;99.90;;;;;;5044008;28;20243;-80
2023/08/25 11:23:55;;;;;;;12.30;11.07;;;23.30;99.90;;;;;;5047023;28;20655;-79
2023/08/25 11:26:22;;;;;;;12.00;10.70;;;23.40;99.90;;;;;;5041636;28;20306;-79
2023/08/25 11:28:52;;;;;;;12.73;11.40;;;23.40;99.90;;;;;;5043602;28;20318;-80
2023/08/25 11:31:21;;;;;;;12.10;10.85;;;23.40;99.90;;;;;;5032035;28;20267;-79
2023/08/25 11:33:48;;;;;;;11.70;9.55;;;23.40;99.90;;;;;;5061348;28;20311;-80
2023/08/25 11:36:17;;;;;;;10.70;9.60;;;23.50;99.90;;;;;;5039935;28;20220;-79
2023/08/25 11:38:48;;;;;;;12.65;8.70;;;23.50;99.90;;;;;;5063523;28;20329;-79
2023/08/25 11:41:15;;;;;;;11.30;9.95;;;23.40;99.90;;;;;;5043601;28;20219;-79
2023/08/25 11:43:43;;;;;;;11.73;10.18;;;23.50;99.90;;;;;;5036299;28;20246;-79
2023/08/25 11:46:12;;;;;;;10.50;8.25;;;23.40;99.90;;;;;;5043887;28;20264;-79
2023/08/25 11:48:38;;;;;;;10.88;9.48;;;23.40;99.90;;;;;;5034439;28;20299;-79
2023/08/25 11:51:05;;;;;;;13.73;10.68;;;23.30;99.90;;;;;;5066318;28;20226;-79
2023/08/25 11:53:33;;;;;;;11.38;10.05;;;23.30;99.90;;;;;;5062248;28;20298;-80
2023/08/25 11:56:02;;;;;;;11.65;10.40;;;23.30;99.90;;;;;;5042576;28;20291;-79
2023/08/25 11:58:33;;;;;;;12.00;10.77;;;23.20;99.90;;;;;;5061676;28;20322;-80
2023/08/25 12:01:01;;;;;;;11.55;9.98;;;23.20;99.90;;;;;;5041438;28;20319;-79
2023/08/25 12:03:27;;;;;;;12.80;10.82;;;23.20;99.90;;;;;;5045884;28;20223;-79
2023/08/25 12:05:54;;;;;;;17.73;11.88;;;23.10;99.90;;;;;;5064921;28;20704;-80
2023/08/25 12:08:21;;;;;;;13.60;12.18;;;23.10;99.90;;;;;;5058124;28;20227;-79
2023/08/25 12:10:49;;;;;;;12.90;11.60;;;23.00;99.90;;;;;;5066776;28;20277;-79
2023/08/25 12:13:23;;;;;;;14.45;11.98;;;22.90;99.90;;;;;;5042039;28;20223;-79
2023/08/25 12:15:53;;;;;;;15.75;12.43;;;22.80;99.90;;;;;;5040601;28;20234;-80
2023/08/25 12:18:21;;;;;;;15.63;13.98;;;22.80;99.90;;;;;;5042926;28;20256;-80
2023/08/25 12:20:48;;;;;;;16.45;14.77;;;22.70;99.90;;;;;;5046511;28;20229;-79
2023/08/25 12:23:15;;;;;;;15.55;13.88;;;22.70;99.90;;;;;;5061427;28;20215;-79
2023/08/25 12:25:43;;;;;;;15.30;13.80;;;22.70;99.90;;;;;;5065028;28;20223;-80
2023/08/25 12:28:11;;;;;;;15.52;13.85;;;22.70;99.90;;;;;;5045992;28;20310;-79
2023/08/25 12:30:38;;;;;;;13.50;12.18;;;22.70;99.90;;;;;;5041985;28;20832;-80
2023/08/25 12:33:06;;;;;;;15.93;14.23;;;22.70;99.90;;;;;;5042003;28;20215;-79
2023/08/25 12:35:33;;;;;;;14.88;13.30;;;22.70;99.90;;;;;;5063388;28;20603;-79